Kartaly, Russia
Current Conditions -  °F | °C
As of 11:30 AM on Saturday 25 Oct 2014 (Local Time) from USCM Reporting Station
Broken Clouds Broken Clouds  
Wind Chill:   Ceiling: 10000
Heat Index: 18°   Visibility: 6mi
Dew Point:   Wind: 16mph
Humidity: 53%   Direction: 340°NNW
Pressure: 29.91"   Gusts: NA
Location:  53.05°N, 60.67°E
Report Text: USCM 250530Z 34007MPS 9999 SCT030CB BKN100 M08/M16 Q1013 NOSIG01090065 RMK QFE721
Loading
Personal Weather Stations






























Interactive Weather Map
Tropical Storm Tracking
New forecast layout! Learn more

10-Day Weather Forecast

Advertisements
Track Severe Weather on mobile